createdAt,value
2023-05-06T02:42:02.032Z,0.1
2023-05-06T02:44:01.104Z,0.2
2023-05-06T02:47:16.046Z,0.4
2023-05-06T02:48:01.345Z,0.5
2023-05-06T02:49:01.025Z,0.6
2023-05-06T02:50:01.025Z,0.7
2023-05-06T02:51:01.032Z,0.9
2023-05-06T02:52:01.419Z,1.1
2023-05-06T02:53:01.237Z,1.3
2023-05-06T02:54:01.034Z,1.5
2023-05-06T02:55:01.103Z,1.8
2023-05-06T02:56:01.046Z,2.1
2023-05-06T02:57:01.059Z,2.4
2023-05-06T02:58:01.339Z,2.7
2023-05-06T02:59:01.031Z,3.2
2023-05-06T03:00:01.596Z,3.7
2023-05-06T03:01:01.051Z,4.1
2023-05-06T03:02:01.104Z,4.9
2023-05-06T03:03:16.060Z,5.6
2023-05-06T03:04:01.525Z,6.5
2023-05-06T03:05:01.047Z,7.5
2023-05-06T03:06:02.059Z,8.4
2023-05-06T03:07:01.055Z,9.7
2023-05-06T03:08:01.037Z,10.9
2023-05-06T03:09:01.244Z,12.5
2023-05-06T03:10:01.049Z,14.0
2023-05-06T03:11:02.124Z,15.5
2023-05-06T03:12:01.056Z,17.6
2023-05-06T03:13:01.040Z,19.7
2023-05-06T03:14:01.473Z,22.7
2023-05-06T03:17:01.290Z,31.8
2023-05-06T03:18:01.064Z,34.7
2023-05-06T03:19:01.509Z,38.7
2023-05-06T03:20:01.088Z,42.7
2023-05-06T03:21:01.070Z,46.7
2023-05-06T03:22:02.077Z,52.2
2023-05-06T03:23:01.074Z,57.7
2023-05-06T03:24:16.337Z,67.8
2023-05-06T03:26:01.035Z,88.1
2023-05-06T03:27:01.088Z,103.3
2023-05-06T03:52:00.725Z,1021.0
2023-05-06T03:53:00.776Z,1053.5
2023-05-06T03:54:00.716Z,1129.0
2023-05-06T03:55:00.956Z,1179.3
2023-05-06T03:56:00.725Z,1215.3
2023-05-06T03:57:00.719Z,1235.9
2023-05-06T03:58:00.767Z,1251.9
2023-05-06T03:59:00.720Z,1317.1
2023-05-06T04:02:00.730Z,1431.9
2023-05-06T04:03:00.779Z,1446.5
2023-05-06T04:04:00.765Z,1473.9
2023-05-06T04:05:01.034Z,1534.1
2023-05-06T04:06:00.822Z,1594.2
2023-05-06T04:07:00.729Z,1626.1
2023-05-06T04:08:00.759Z,1657.9
2023-05-06T04:09:01.003Z,1680.0
2023-05-06T04:10:01.079Z,1702.1
2023-05-06T04:11:00.730Z,1724.1
2023-05-06T04:12:00.725Z,1780.7
2023-05-06T04:13:00.800Z,1837.3
2023-05-06T04:14:00.725Z,1899.3
2023-05-06T04:15:01.804Z,1961.2
2023-05-06T04:17:00.767Z,2132.5
2023-05-06T04:18:00.843Z,2241.8
2023-05-06T04:19:00.810Z,2373.1
2023-05-06T04:20:00.955Z,2504.3
2023-05-06T04:21:00.729Z,2635.6
2023-05-06T04:22:01.023Z,2772.1
2023-05-06T04:23:00.790Z,2908.7
2023-05-06T04:24:00.750Z,3046.1
2023-05-06T04:25:00.970Z,3183.5
2023-05-06T04:26:00.732Z,3320.9
2023-05-06T04:27:00.732Z,3371.9
2023-05-06T04:28:00.756Z,3422.9
2023-05-06T04:29:00.732Z,3443.2
2023-05-06T04:32:00.826Z,3459.1
2023-05-06T04:33:00.781Z,3434.3
2023-05-06T04:34:00.732Z,3369.4
2023-05-06T04:37:00.732Z,3234.1
2023-05-06T04:38:00.873Z,3228.5
2023-05-06T04:39:00.775Z,3220.7
2023-05-06T04:40:03.078Z,3212.9
2023-05-06T04:41:00.745Z,3205.1
2023-05-06T04:42:00.732Z,3272.5
2023-05-06T04:43:00.799Z,3339.9
2023-05-06T04:44:01.775Z,3422.2
2023-05-06T04:47:01.770Z,3681.1
2023-05-06T04:48:00.801Z,3775.3
2023-05-06T05:12:00.470Z,5594.3
2023-05-06T05:13:06.521Z,5524.5
2023-05-06T05:14:02.070Z,5371.6
2023-05-06T05:15:01.315Z,5269.7
2023-05-06T05:17:00.496Z,5166.6
2023-05-06T05:18:00.476Z,5143.1
2023-05-06T05:19:02.997Z,5234.8
2023-05-06T05:20:00.945Z,5309.8
2023-05-06T05:21:05.709Z,5372.3
2023-05-06T05:22:00.464Z,5500.1
2023-05-06T05:23:00.478Z,5609.6
2023-05-06T05:24:00.506Z,5748.7
2023-05-06T05:27:00.479Z,6177.5
2023-05-06T05:28:00.474Z,6344.5
2023-05-06T05:29:00.504Z,6559.5
2023-05-06T05:32:00.494Z,7259.3
2023-05-06T05:33:00.639Z,7528.9
2023-05-06T05:34:00.500Z,7767.0
2023-05-06T05:35:01.389Z,8005.1
2023-05-06T05:36:00.472Z,8243.3
2023-05-06T05:37:00.475Z,8391.3
2023-05-06T05:38:00.477Z,8539.4
2023-05-06T05:39:00.501Z,8677.6
2023-05-06T05:40:02.256Z,8815.8
2023-05-06T05:41:00.484Z,8954.0
2023-05-06T05:42:00.572Z,9106.7
2023-05-06T05:43:05.739Z,9259.3
2023-05-06T05:44:00.511Z,9324.9
2023-05-06T05:47:00.550Z,9546.7
2023-05-06T05:48:00.570Z,9637.5
2023-05-06T05:49:00.507Z,9597.1
2023-05-06T05:50:00.696Z,9556.7
2023-05-06T05:51:00.484Z,9516.3
2023-05-06T05:52:00.484Z,9435.0
2023-05-06T05:53:00.472Z,9353.7
2023-05-06T05:54:00.546Z,9239.1
2023-05-06T05:55:00.721Z,9124.6
2023-05-06T05:56:00.487Z,9010.1
2023-05-06T05:57:00.496Z,8802.6
2023-05-06T05:58:00.766Z,8595.1
2023-05-06T05:59:00.653Z,8481.7
2023-05-06T06:02:00.486Z,8064.1
2023-05-06T06:03:00.684Z,7873.4
2023-05-06T06:04:00.622Z,7805.2
2023-05-06T06:05:00.729Z,7737.0
2023-05-06T06:06:00.478Z,7668.8
2023-05-06T06:07:00.485Z,7617.3
2023-05-06T06:08:02.301Z,7565.7
2023-05-06T06:09:00.559Z,7581.2
2023-05-06T06:10:01.250Z,7596.7
2023-05-06T06:11:00.496Z,7612.1
2023-05-06T06:12:00.726Z,7763.1
2023-05-06T06:13:00.539Z,7914.1
2023-05-06T06:14:00.750Z,8084.2
2023-05-06T06:17:00.481Z,8537.4
2023-05-06T06:18:00.510Z,8650.5
2023-05-06T06:19:00.725Z,8801.4
2023-05-06T06:20:05.695Z,8952.3
2023-05-06T06:21:00.482Z,9103.3
2023-05-06T06:22:00.505Z,9310.3
2023-05-06T06:23:00.484Z,9517.3
2023-05-06T06:24:00.533Z,9695.5
2023-05-06T06:25:01.962Z,9873.7
2023-05-06T06:26:00.485Z,10051.9
2023-05-06T06:27:00.481Z,10195.7
2023-05-06T06:28:00.746Z,10339.5
2023-05-06T06:29:00.512Z,10459.8
2023-05-06T06:30:01.455Z,10580.1
2023-05-06T06:32:00.506Z,10902.1
2023-05-06T06:33:00.539Z,11103.7
2023-05-06T06:34:00.518Z,11155.0
2023-05-06T06:35:00.767Z,11206.3
2023-05-06T06:36:00.490Z,11257.7
2023-05-06T06:37:01.576Z,11210.2
2023-05-06T06:38:00.501Z,11162.7
2023-05-06T06:39:00.508Z,10954.5
2023-05-06T06:40:00.706Z,10746.2
2023-05-06T06:41:00.495Z,10537.9
2023-05-06T06:42:00.495Z,10301.5
2023-05-06T06:43:00.494Z,10065.1
2023-05-06T06:44:00.518Z,9882.8
2023-05-06T06:47:01.580Z,9296.5
2023-05-06T06:48:00.515Z,9074.9
2023-05-06T06:49:00.545Z,8965.3
2023-05-06T06:50:00.704Z,8855.6
2023-05-06T06:51:00.493Z,8745.9
2023-05-06T06:52:00.747Z,8782.9
2023-05-06T06:53:00.492Z,8819.8
2023-05-06T06:54:00.546Z,8990.5
2023-05-06T06:55:01.259Z,9161.3
2023-05-06T06:57:00.568Z,9483.3
2023-05-06T06:58:00.493Z,9634.7
2023-05-06T06:59:00.525Z,9693.2
2023-05-06T07:02:00.537Z,9807.5
2023-05-06T07:03:00.568Z,9804.7
2023-05-06T07:04:00.678Z,9839.4
2023-05-06T07:05:00.743Z,9874.1
2023-05-06T07:06:00.497Z,9908.9
2023-05-06T07:07:00.512Z,9923.3
2023-05-06T07:08:00.491Z,9937.8
2023-05-06T07:09:00.549Z,10030.7
2023-05-06T07:10:00.707Z,10123.7
2023-05-06T07:11:00.493Z,10216.6
2023-05-06T07:12:00.499Z,10465.9
2023-05-06T07:13:00.504Z,10715.1
2023-05-06T07:14:00.533Z,11043.9
2023-05-06T07:15:01.327Z,11372.7
2023-05-06T07:17:00.499Z,12200.9
2023-05-06T07:18:00.700Z,12700.3
2023-05-06T07:19:00.830Z,13351.1
2023-05-06T07:20:01.042Z,14001.8
2023-05-06T07:21:00.497Z,14652.5
2023-05-06T07:22:00.502Z,15314.6
2023-05-06T07:23:00.541Z,15976.7
2023-05-06T07:24:06.603Z,16473.1
2023-05-06T07:25:02.172Z,16969.5
2023-05-06T07:26:00.508Z,17465.9
2023-05-06T07:27:00.506Z,17884.0
2023-05-06T07:28:00.513Z,18302.1
2023-05-06T07:29:00.559Z,18842.9
2023-05-06T07:32:00.511Z,20102.3
2023-05-06T07:33:00.552Z,20280.0
2023-05-06T07:34:00.730Z,20143.4
2023-05-06T07:35:01.192Z,20006.8
2023-05-06T07:36:00.504Z,19870.2
2023-05-06T07:37:00.576Z,19727.3
2023-05-06T07:38:00.509Z,19584.3
2023-05-06T07:39:00.561Z,19491.8
2023-05-06T07:41:01.532Z,19306.7
2023-05-06T07:42:00.514Z,19001.7
2023-05-06T07:43:00.508Z,18696.6
2023-05-06T07:44:00.548Z,18295.1
2023-05-06T07:45:01.444Z,17893.5
2023-05-06T07:47:00.538Z,17414.3
2023-05-06T07:48:01.600Z,17336.5
2023-05-06T07:49:00.544Z,17361.7
2023-05-06T07:50:00.771Z,17386.9
2023-05-06T07:51:01.532Z,17412.1
2023-05-06T07:52:00.509Z,17425.0
2023-05-06T07:53:00.511Z,17437.9
2023-05-06T07:54:05.850Z,17589.1
2023-05-06T07:56:05.521Z,17891.7
2023-05-06T07:57:00.522Z,18264.9
2023-05-06T07:58:00.513Z,18638.1
2023-05-06T07:59:00.514Z,18969.3
2023-05-06T08:02:00.512Z,20101.1
2023-05-06T08:03:00.550Z,20570.6
2023-05-06T08:04:00.677Z,21128.7
2023-05-06T08:05:00.790Z,21686.9
2023-05-06T08:06:00.871Z,22245.0
2023-05-06T08:07:00.513Z,22781.9
2023-05-06T08:08:00.786Z,23318.7
2023-05-06T08:09:00.512Z,23819.3
2023-05-06T08:10:00.820Z,24319.9
2023-05-06T08:11:00.513Z,24820.5
2023-05-06T08:12:00.513Z,25159.1
2023-05-06T08:13:00.576Z,25497.6
2023-05-06T08:14:00.528Z,25627.4
2023-05-06T08:17:00.521Z,25920.0
2023-05-06T08:18:07.295Z,25953.0
2023-05-06T08:19:00.599Z,26064.4
2023-05-06T08:20:02.396Z,26175.8
2023-05-06T08:21:00.798Z,26287.2
2023-05-06T08:22:00.668Z,26617.1
2023-05-06T08:23:00.520Z,26946.9
2023-05-06T08:24:00.517Z,27660.9
2023-05-06T08:25:00.861Z,28374.9
2023-05-06T08:26:00.512Z,29088.9
2023-05-06T08:27:00.511Z,30499.3
2023-05-06T08:28:00.513Z,31909.7
2023-05-06T08:29:00.516Z,33420.7
2023-05-06T08:30:02.030Z,34931.6
2023-05-06T08:32:00.584Z,38306.8
2023-05-06T08:33:00.531Z,40171.1
2023-05-06T08:34:00.517Z,42059.9
2023-05-06T08:35:01.008Z,43948.8
2023-05-06T08:36:00.518Z,45837.7
2023-05-06T08:37:00.521Z,47568.7
2023-05-06T08:38:00.701Z,49299.8
2023-05-06T08:39:00.513Z,50835.4
2023-05-06T08:42:00.520Z,54686.7
2023-05-06T08:43:00.516Z,55466.9
2023-05-06T08:44:00.514Z,56227.3
2023-05-06T08:47:00.517Z,57913.2
2023-05-06T08:48:00.563Z,58078.3
2023-05-06T08:49:00.528Z,57007.7
2023-05-06T08:52:00.523Z,53343.9
2023-05-06T08:53:00.524Z,51821.3
2023-05-06T08:54:00.546Z,50753.5
2023-05-06T08:55:00.808Z,49685.6
2023-05-06T08:56:00.519Z,48617.7
2023-05-06T08:57:00.522Z,47486.4
2023-05-06T08:58:00.760Z,46355.1
2023-05-06T08:59:00.789Z,45053.8
2023-05-06T09:02:00.514Z,41027.5
2023-05-06T09:03:00.570Z,39603.7
2023-05-06T09:04:00.523Z,39416.5
2023-05-06T09:05:00.785Z,39229.3
2023-05-06T09:06:00.535Z,39042.1
2023-05-06T09:07:00.527Z,38939.0
2023-05-06T09:08:00.757Z,38835.9
2023-05-06T09:09:00.522Z,38383.9
2023-05-06T09:10:02.047Z,37931.8
2023-05-06T09:11:01.548Z,37479.7
2023-05-06T09:12:00.532Z,37289.2
2023-05-06T09:13:00.613Z,37098.7
2023-05-06T09:14:01.545Z,37508.9
2023-05-06T09:15:01.717Z,37919.2
2023-05-06T09:16:00.521Z,38329.5
2023-05-06T09:17:00.563Z,39396.5
2023-05-06T09:18:00.615Z,40463.6
2023-05-06T09:19:00.798Z,41183.3
2023-05-06T09:20:00.747Z,41902.9
2023-05-06T09:21:00.928Z,42622.6
2023-05-06T09:22:00.532Z,44178.9
2023-05-06T09:23:00.526Z,45735.3
2023-05-06T09:24:00.526Z,46507.5
2023-05-06T09:25:00.804Z,47279.8
2023-05-06T09:26:00.699Z,48052.1
2023-05-06T09:27:00.546Z,49036.9
2023-05-06T09:28:00.523Z,50021.8
2023-05-06T09:29:00.557Z,50706.5
2023-05-06T09:32:00.532Z,51864.7
2023-05-06T09:33:00.575Z,51653.3
2023-05-06T09:34:00.819Z,52492.4
2023-05-06T09:35:00.759Z,53331.5
2023-05-06T09:36:00.609Z,54170.5
2023-05-06T09:37:00.550Z,54240.5
2023-05-06T09:38:00.540Z,54310.4
2023-05-06T09:39:00.549Z,55036.3
2023-05-06T09:40:00.762Z,55762.1
2023-05-06T09:41:00.580Z,56488.0
2023-05-06T09:42:00.625Z,56418.4
2023-05-06T09:43:00.600Z,56348.8
2023-05-06T09:44:00.541Z,56492.6
2023-05-06T09:47:00.555Z,57272.3
2023-05-06T09:48:00.622Z,57764.5
2023-05-06T09:49:00.590Z,56964.1
2023-05-06T09:52:00.549Z,54639.9
2023-05-06T09:53:00.794Z,53916.4
2023-05-06T09:54:00.617Z,52763.1
2023-05-06T09:55:00.746Z,51609.9
2023-05-06T09:56:00.597Z,50456.6
2023-05-06T09:57:01.175Z,49926.9
2023-05-06T09:58:00.609Z,49397.1
2023-05-06T09:59:00.541Z,48755.7
2023-05-06T10:00:01.568Z,48114.3
2023-05-06T10:02:00.571Z,46857.5
2023-05-06T10:03:00.605Z,46242.0
2023-05-06T10:04:00.625Z,45994.9
2023-05-06T10:07:00.565Z,45568.5
2023-05-06T10:08:00.581Z,45636.5
2023-05-06T10:09:00.539Z,46246.8
2023-05-06T10:10:00.778Z,46857.1
2023-05-06T10:11:00.573Z,47467.5
2023-05-06T10:12:00.542Z,47547.5
2023-05-06T10:13:00.560Z,47627.6
2023-05-06T10:14:00.692Z,47487.7
2023-05-06T10:15:02.491Z,47347.9
2023-05-06T10:17:00.549Z,47219.2
2023-05-06T10:18:00.560Z,47230.4
2023-05-06T10:19:00.547Z,47137.3
2023-05-06T10:20:15.580Z,47044.3
2023-05-06T10:21:01.777Z,46951.2
2023-05-06T10:22:00.548Z,46904.5
2023-05-06T10:23:00.557Z,46857.9
2023-05-06T10:52:01.127Z,62720.3
2023-05-06T10:53:01.140Z,63424.0
2023-05-06T10:54:01.097Z,61365.8
2023-05-06T10:55:01.336Z,59993.7
2023-05-06T10:56:01.291Z,59013.6
2023-05-06T10:57:01.190Z,58926.8
2023-05-06T10:58:01.099Z,58859.2
2023-05-06T10:59:01.104Z,57573.6
2023-05-06T11:00:07.425Z,56521.7
2023-05-06T11:01:01.418Z,55645.2
2023-05-06T11:02:01.191Z,55985.8
2023-05-06T11:03:01.157Z,56277.9
2023-05-06T11:04:01.371Z,56680.6
2023-05-06T11:05:02.849Z,56747.7
2023-05-06T11:06:01.200Z,56814.7
2023-05-06T11:09:01.112Z,57641.5
2023-05-06T11:10:01.335Z,58468.3
2023-05-06T11:11:01.142Z,59295.1
2023-05-06T11:12:01.105Z,59776.2
2023-05-06T11:13:01.186Z,60257.3
2023-05-06T11:14:01.117Z,60788.9
2023-05-06T11:17:01.118Z,60791.4
2023-05-06T11:18:01.151Z,59730.5
2023-05-06T11:19:01.109Z,58913.6
2023-05-06T11:20:02.488Z,58096.7
2023-05-06T11:21:01.143Z,57279.7
2023-05-06T11:27:01.643Z,57137.4
2023-05-06T11:28:01.196Z,56995.1
2023-05-06T11:29:01.106Z,57765.5
2023-05-06T11:31:01.138Z,59306.5
2023-05-06T11:32:01.317Z,59146.9
2023-05-06T11:33:01.807Z,58987.4
2023-05-06T11:34:01.109Z,59098.5
2023-05-06T11:35:01.809Z,59209.7
2023-05-06T11:36:01.124Z,59320.8
2023-05-06T11:37:02.028Z,58310.0
2023-05-06T11:38:01.206Z,57299.2
2023-05-06T11:39:02.001Z,55970.5
2023-05-06T11:40:01.125Z,54641.9
2023-05-06T11:42:01.303Z,53942.3
2023-05-06T11:43:01.194Z,53385.0
2023-05-06T11:44:01.117Z,52340.7
2023-05-06T11:45:01.112Z,51154.1
2023-05-06T11:46:01.128Z,49967.5
2023-05-06T11:47:01.371Z,48472.6
2023-05-06T11:48:01.120Z,48562.1
2023-05-06T11:49:01.155Z,48701.3
2023-05-06T11:50:01.167Z,48176.3
2023-05-06T11:51:02.138Z,47651.2
2023-05-06T11:52:01.569Z,47309.9
2023-05-06T11:53:01.121Z,47059.3
2023-05-06T11:54:01.142Z,47203.5
2023-05-06T11:55:01.100Z,47665.5
2023-05-06T11:56:01.732Z,48127.6
2023-05-06T11:57:02.201Z,47398.2
2023-05-06T11:58:01.110Z,46668.8
2023-05-06T11:59:01.126Z,45964.6
2023-05-06T12:00:01.356Z,45260.4
2023-05-06T12:01:01.382Z,44556.2
2023-05-06T12:02:01.717Z,44516.3
2023-05-06T12:03:01.126Z,44476.3
2023-05-06T12:04:01.494Z,44134.3
2023-05-06T12:05:01.185Z,43792.2
2023-05-06T12:06:01.101Z,43450.1
2023-05-06T12:07:01.301Z,43052.1
2023-05-06T12:08:01.105Z,42654.1
2023-05-06T12:09:01.093Z,41471.5
2023-05-06T12:10:01.125Z,40288.9
2023-05-06T12:11:01.929Z,39106.3
2023-05-06T12:12:01.310Z,39299.2
2023-05-06T12:13:01.146Z,39492.1
2023-05-06T12:14:01.117Z,39617.3
2023-05-06T12:15:01.205Z,39742.5
2023-05-06T12:16:01.440Z,39867.7
2023-05-06T12:17:01.312Z,39648.1
2023-05-06T12:18:01.178Z,39428.5
2023-05-06T12:19:01.104Z,39441.5
2023-05-06T12:20:01.117Z,39454.6
2023-05-06T12:21:01.115Z,39467.7
2023-05-06T12:22:01.961Z,39077.5
2023-05-06T12:23:01.169Z,38687.4
2023-05-06T12:24:01.204Z,38510.4
2023-05-06T12:25:01.100Z,38333.4
2023-05-06T12:26:01.729Z,38156.4
2023-05-06T12:27:16.117Z,37084.7
2023-05-06T12:28:02.295Z,36013.1
2023-05-06T12:29:01.106Z,35546.8
2023-05-06T12:30:01.365Z,35080.5
2023-05-06T12:31:01.234Z,34614.3
2023-05-06T12:32:01.174Z,33865.4
2023-05-06T12:33:01.415Z,33116.5
2023-05-06T12:34:01.407Z,32402.6
2023-05-06T12:35:01.115Z,31688.7
2023-05-06T12:36:02.061Z,30974.7
2023-05-06T12:38:01.333Z,29882.3
2023-05-06T12:39:01.112Z,29766.1
2023-05-06T12:40:01.132Z,29649.8
2023-05-06T12:41:01.477Z,29533.5
2023-05-06T12:42:01.387Z,29711.7
2023-05-06T12:43:01.311Z,29889.9
2023-05-06T12:44:01.123Z,29649.5
2023-05-06T12:45:01.111Z,29409.1
2023-05-06T12:46:01.163Z,29168.7
2023-05-06T12:47:01.278Z,29010.2
2023-05-06T12:48:16.200Z,28851.7
2023-05-06T12:49:16.124Z,29210.2
2023-05-06T12:50:16.135Z,29568.7
2023-05-06T12:51:02.199Z,29927.3
2023-05-06T12:52:01.114Z,30159.3
2023-05-06T13:22:00.693Z,46005.7
2023-05-06T13:23:00.395Z,46218.0
2023-05-06T13:24:00.650Z,46761.2
2023-05-06T13:25:01.507Z,47123.3
2023-05-06T13:26:04.003Z,47382.0
2023-05-06T13:27:00.389Z,45867.6
2023-05-06T13:28:00.391Z,44689.8
2023-05-06T13:29:00.401Z,43936.1
2023-05-06T13:32:00.393Z,42269.9
2023-05-06T13:33:00.435Z,41810.8
2023-05-06T13:34:00.403Z,41412.9
2023-05-06T13:35:15.551Z,40934.4
2023-05-06T13:36:01.227Z,40455.9
2023-05-06T13:37:00.396Z,39675.1
2023-05-06T13:38:00.400Z,38894.2
2023-05-06T14:00:05.145Z,37755.0
2023-05-06T14:02:00.869Z,38174.7
2023-05-06T14:03:00.812Z,38384.5
2023-05-06T14:04:00.808Z,38510.4
2023-05-06T14:05:01.938Z,38486.0
2023-05-06T14:06:00.785Z,38468.6
2023-05-06T14:07:00.781Z,38530.3
2023-05-06T14:08:00.848Z,38578.2
2023-05-06T14:09:00.817Z,38616.6
2023-05-06T14:12:00.795Z,37872.5
2023-05-06T14:13:00.796Z,37412.9
2023-05-06T14:14:00.829Z,37014.5
2023-05-06T14:17:00.783Z,35964.7
2023-05-06T14:18:00.817Z,35457.8
2023-05-06T14:42:00.249Z,49694.0
2023-05-06T14:43:00.284Z,49813.0
2023-05-06T14:44:00.257Z,49884.4
2023-05-06T14:47:00.259Z,49760.8
2023-05-06T14:48:00.355Z,49657.8
2023-05-06T14:49:00.249Z,49575.4
2023-05-06T14:50:01.373Z,49845.1
2023-05-06T14:52:00.253Z,49846.2
2023-05-06T14:53:02.263Z,49654.4
2023-05-06T14:54:00.266Z,49488.3
2023-05-06T14:55:00.987Z,49265.7
2023-05-06T14:56:00.355Z,49043.1
2023-05-06T14:57:00.259Z,48994.7
2023-05-06T14:58:00.258Z,48946.4
2023-05-06T14:59:01.876Z,48898.1
2023-05-06T15:00:01.609Z,48690.2
2023-05-06T15:02:00.272Z,48750.1
2023-05-06T15:03:00.340Z,49017.8
2023-05-06T15:04:00.265Z,49285.5
2023-05-06T15:07:00.277Z,48035.7
2023-05-06T15:08:00.271Z,47864.9
2023-05-06T15:09:00.256Z,47694.0
2023-05-06T15:10:15.287Z,47558.9
2023-05-06T15:11:02.390Z,47423.9
2023-05-06T15:12:00.366Z,47129.2
2023-05-06T15:13:00.321Z,46834.5
2023-05-06T15:14:00.269Z,46539.9
2023-05-06T15:15:01.177Z,46798.5
2023-05-06T15:16:00.600Z,47057.1
2023-05-06T15:17:00.421Z,46026.9
2023-05-06T15:18:00.362Z,44996.8
2023-05-06T15:19:00.268Z,43966.7
2023-05-06T15:20:00.313Z,43356.4
2023-05-06T15:21:00.598Z,42746.1
2023-05-06T15:22:00.261Z,41797.3
2023-05-06T15:23:00.275Z,40848.5
2023-05-06T15:24:00.259Z,39899.7
2023-05-06T15:25:01.059Z,39131.5
2023-05-06T15:26:00.466Z,38363.2
2023-05-06T15:27:00.301Z,37299.3
2023-05-06T15:28:00.433Z,36235.3
2023-05-06T15:29:00.279Z,35171.4
2023-05-06T15:32:00.289Z,33010.2
2023-05-06T15:33:00.295Z,33141.3
2023-05-06T15:34:00.787Z,33272.3
2023-05-06T15:35:00.967Z,33277.7
2023-05-06T15:36:00.478Z,33283.1
2023-05-06T15:37:00.515Z,34133.0
2023-05-06T15:38:00.528Z,34982.9
2023-05-06T15:39:00.819Z,35832.7
2023-05-06T15:40:00.411Z,36246.8
2023-05-06T15:41:00.784Z,36660.9
2023-05-06T15:42:00.266Z,37398.5
2023-05-06T15:43:00.280Z,38136.2
2023-05-06T15:44:00.339Z,38873.9
2023-05-06T15:46:00.590Z,40153.2
2023-05-06T15:47:00.283Z,40197.6
2023-05-06T15:48:00.542Z,40242.0
2023-05-06T15:49:12.692Z,40286.4
2023-05-06T15:50:00.351Z,40613.5
2023-05-06T15:51:00.545Z,40940.7
2023-05-06T15:52:01.177Z,40661.1
2023-05-06T15:53:00.265Z,40381.6
2023-05-06T15:54:00.268Z,40102.1
2023-05-06T15:55:00.936Z,40255.9
2023-05-06T15:56:07.500Z,40409.7
2023-05-06T15:57:00.527Z,40268.7
2023-05-06T15:58:00.963Z,40127.7
2023-05-06T15:59:00.274Z,39986.7
2023-05-06T16:00:01.011Z,39446.0
2023-05-06T16:01:01.836Z,38905.3
2023-05-06T16:02:26.054Z,38696.5
2023-05-06T16:03:00.399Z,38487.6
2023-05-06T16:04:00.449Z,38278.7
2023-05-06T16:05:00.380Z,37874.5
2023-05-06T16:06:01.115Z,37470.2
2023-05-06T16:07:00.272Z,37329.9
2023-05-06T16:08:00.271Z,37189.7
2023-05-06T16:09:00.914Z,37049.4
2023-05-06T16:10:01.142Z,36752.4
2023-05-06T16:11:00.995Z,36455.4
2023-05-06T16:12:00.269Z,36083.1
2023-05-06T16:13:00.307Z,35710.9
2023-05-06T16:14:00.274Z,35338.6
2023-05-06T16:16:01.459Z,34703.3
2023-05-06T16:17:00.275Z,33983.1
2023-05-06T16:18:00.284Z,33263.0
2023-05-06T16:19:00.297Z,32542.9
2023-05-06T16:20:00.311Z,32008.3
2023-05-06T16:21:01.698Z,31473.8
2023-05-06T16:22:00.352Z,30543.3
2023-05-06T16:23:00.334Z,29612.9
2023-05-06T16:24:00.348Z,28682.4
2023-05-06T16:25:01.295Z,27783.2
2023-05-06T16:26:01.000Z,26884.0
2023-05-06T16:27:00.338Z,26086.9
2023-05-06T16:28:00.278Z,25289.9
2023-05-06T16:29:00.271Z,24492.8
2023-05-06T16:31:00.816Z,23093.1
2023-05-06T16:32:00.489Z,22558.9
2023-05-06T16:33:00.333Z,22024.8
2023-05-06T16:34:00.285Z,21490.7
2023-05-06T16:35:00.549Z,20853.1
2023-05-06T16:36:00.490Z,20215.5
2023-05-06T16:37:00.271Z,19862.7
2023-05-06T16:38:00.276Z,19509.9
2023-05-06T16:39:00.340Z,19157.1
2023-05-06T16:40:00.314Z,18697.6
2023-05-06T16:41:00.485Z,18238.1
2023-05-06T16:42:00.279Z,17895.3
2023-05-06T16:43:00.347Z,17552.5
2023-05-06T16:44:00.694Z,17209.7
2023-05-06T16:46:00.617Z,16455.9
2023-05-06T16:47:00.373Z,16236.4
2023-05-06T16:48:00.626Z,16016.9
2023-05-06T16:49:00.359Z,15797.5
2023-05-06T16:50:00.319Z,15614.3
2023-05-06T16:51:00.832Z,15431.2
2023-05-06T16:52:00.304Z,15230.8
2023-05-06T16:53:00.342Z,15030.4
2023-05-06T16:54:00.357Z,14830.0
2023-05-06T16:55:00.330Z,14700.1
2023-05-06T16:56:01.260Z,14570.3
2023-05-06T16:57:00.563Z,14525.7
2023-05-06T16:58:00.287Z,14481.1
2023-05-06T16:59:00.297Z,14436.5
2023-05-06T17:01:00.602Z,14503.1
2023-05-06T17:02:00.310Z,14394.5
2023-05-06T17:03:00.375Z,14285.9
2023-05-06T17:04:00.310Z,14177.3
2023-05-06T17:05:00.606Z,14123.7
2023-05-06T17:06:00.814Z,14070.1
2023-05-06T17:07:00.281Z,13947.5
2023-05-06T17:08:00.285Z,13824.9
2023-05-06T17:09:00.408Z,13702.3
2023-05-06T17:10:00.650Z,13542.2
2023-05-06T17:11:01.118Z,13382.1
2023-05-06T17:12:00.285Z,13239.1
2023-05-06T17:13:00.306Z,13096.1
2023-05-06T17:14:00.283Z,12953.1
2023-05-06T17:15:01.014Z,12730.8
2023-05-06T17:16:00.836Z,12508.5
2023-05-06T17:17:00.303Z,12382.2
2023-05-06T17:18:00.324Z,12255.9
2023-05-06T17:19:00.298Z,12129.5
2023-05-06T17:20:00.421Z,12007.2
2023-05-06T17:21:00.553Z,11884.9
2023-05-06T17:22:00.301Z,11772.1
2023-05-06T17:23:00.298Z,11659.4
2023-05-06T17:24:00.400Z,11546.7
2023-05-06T17:25:00.326Z,11436.1
2023-05-06T17:26:00.688Z,11325.6
2023-05-06T17:27:00.288Z,11170.7
2023-05-06T17:28:00.311Z,11015.7
2023-05-06T17:29:00.311Z,10860.8
2023-05-06T17:32:00.289Z,10521.2
2023-05-06T17:33:00.332Z,10356.4
2023-05-06T17:34:00.294Z,10191.6
2023-05-06T17:35:01.130Z,10014.2
2023-05-06T17:36:00.586Z,9836.8
2023-05-06T17:37:00.282Z,9689.1
2023-05-06T17:38:00.290Z,9541.5
2023-05-06T17:39:00.290Z,9393.8
2023-05-06T17:40:00.340Z,9217.1
2023-05-06T17:41:00.509Z,9040.5
2023-05-06T17:42:00.288Z,8964.2
2023-05-06T17:43:00.285Z,8887.9
2023-05-06T17:44:00.295Z,8811.7
2023-05-06T17:45:00.844Z,8788.9
2023-05-06T17:46:00.764Z,8766.2
2023-05-06T17:47:00.297Z,8751.2
2023-05-06T17:48:00.327Z,8736.2
2023-05-06T17:49:00.289Z,8721.2
2023-05-06T17:50:00.332Z,8652.7
2023-05-06T17:51:00.684Z,8584.3
2023-05-06T17:52:01.617Z,8454.7
2023-05-06T17:53:00.289Z,8325.1
2023-05-06T17:54:00.293Z,8195.5
2023-05-06T17:55:11.751Z,8171.2
2023-05-06T17:56:00.436Z,8146.9
2023-05-06T17:57:00.290Z,8014.4
2023-05-06T17:58:00.290Z,7881.9
2023-05-06T17:59:00.295Z,7749.3
2023-05-06T18:02:00.433Z,7176.7
2023-05-06T18:03:00.328Z,6995.6
2023-05-06T18:04:00.461Z,6814.5
2023-05-06T18:05:00.451Z,6662.5
2023-05-06T18:06:01.402Z,6510.6
2023-05-06T18:07:00.295Z,6381.3
2023-05-06T18:08:00.406Z,6251.9
2023-05-06T18:09:00.298Z,6122.6
2023-05-06T18:10:00.348Z,5941.3
2023-05-06T18:11:00.507Z,5759.9
2023-05-06T18:12:00.309Z,5569.4
2023-05-06T18:13:00.326Z,5378.9
2023-05-06T18:14:00.294Z,5188.3
2023-05-06T18:15:00.922Z,5008.7
2023-05-06T18:16:00.912Z,4829.1
2023-05-06T18:17:00.296Z,4680.0
2023-05-06T18:18:00.385Z,4530.9
2023-05-06T18:19:00.305Z,4381.7
2023-05-06T18:20:00.347Z,4232.8
2023-05-06T18:21:01.279Z,4083.9
2023-05-06T18:22:00.303Z,3937.0
2023-05-06T18:23:00.364Z,3790.1
2023-05-06T18:24:05.836Z,3643.3
2023-05-06T18:25:00.340Z,3508.5
2023-05-06T18:26:00.532Z,3373.8
2023-05-06T18:27:00.299Z,3249.0
2023-05-06T18:28:00.301Z,3124.2
2023-05-06T18:29:00.303Z,2999.4
2023-05-06T18:30:01.158Z,2877.3
2023-05-06T18:31:00.583Z,2755.1
2023-05-06T18:32:00.386Z,2643.2
2023-05-06T18:33:00.350Z,2531.3
2023-05-06T18:34:00.302Z,2419.3
2023-05-06T18:35:00.663Z,2330.9
2023-05-06T18:36:00.511Z,2242.5
2023-05-06T18:37:00.313Z,2173.5
2023-05-06T18:38:00.309Z,2104.5
2023-05-06T18:39:00.341Z,2035.5
2023-05-06T18:40:00.385Z,1971.9
2023-05-06T18:41:00.530Z,1908.3
2023-05-06T18:42:00.313Z,1841.5
2023-05-06T18:43:00.308Z,1774.7
2023-05-06T18:44:00.305Z,1707.9
2023-05-06T18:45:00.929Z,1644.1
2023-05-06T18:46:00.658Z,1580.3
2023-05-06T18:47:00.310Z,1518.0
2023-05-06T18:48:00.367Z,1455.7
2023-05-06T18:49:00.316Z,1393.3
2023-05-06T18:50:00.353Z,1337.4
2023-05-06T18:51:00.568Z,1281.5
2023-05-06T18:52:00.308Z,1223.9
2023-05-06T18:53:00.312Z,1166.4
2023-05-06T18:54:00.315Z,1108.9
2023-05-06T18:55:00.359Z,1054.6
2023-05-06T18:56:00.806Z,1000.3
2023-05-06T18:57:00.386Z,954.1
2023-05-06T18:58:00.305Z,907.8
2023-05-06T18:59:00.319Z,861.5
2023-05-06T19:01:01.884Z,778.1
2023-05-06T19:02:00.312Z,741.0
2023-05-06T19:03:00.349Z,703.9
2023-05-06T19:04:00.351Z,666.9